createdAt,value
2023-04-19T00:01:20.319Z,40.86
2023-04-19T00:03:47.843Z,40.13
2023-04-19T00:06:15.825Z,39.69
2023-04-19T00:08:43.968Z,39.68
2023-04-19T00:11:11.303Z,39.74
2023-04-19T00:13:38.718Z,39.24
2023-04-19T00:16:06.275Z,39.82
2023-04-19T00:18:33.798Z,40.04
2023-04-19T00:21:02.276Z,39.90
2023-04-19T00:23:29.504Z,40.07
2023-04-19T00:25:56.863Z,40.26
2023-04-19T00:28:25.733Z,37.32
2023-04-19T00:30:53.235Z,36.25
2023-04-19T00:33:20.363Z,36.18
2023-04-19T00:35:49.067Z,36.08
2023-04-19T00:38:16.174Z,35.73
2023-04-19T00:40:46.381Z,36.33
2023-04-19T00:43:20.660Z,36.17
2023-04-19T00:45:48.125Z,35.78
2023-04-19T00:48:15.900Z,35.56
2023-04-19T00:50:43.882Z,35.12
2023-04-19T00:53:11.292Z,35.05
2023-04-19T00:55:39.118Z,34.56
2023-04-19T00:58:07.338Z,34.04
2023-04-19T01:00:35.613Z,35.18
2023-04-19T01:03:03.547Z,35.33
2023-04-19T01:05:31.117Z,32.27
2023-04-19T01:07:58.313Z,33.37
2023-04-19T01:10:25.723Z,31.44
2023-04-19T01:12:53.044Z,31.41
2023-04-19T01:15:20.391Z,31.00
2023-04-19T01:17:49.772Z,30.56
2023-04-19T01:20:17.022Z,29.51
2023-04-19T01:22:44.700Z,28.31
2023-04-19T01:25:12.511Z,28.21
2023-04-19T01:27:44.411Z,29.31
2023-04-19T01:30:11.938Z,30.25
2023-04-19T01:32:39.374Z,27.94
2023-04-19T01:35:07.144Z,26.40
2023-04-19T01:37:37.768Z,26.58
2023-04-19T01:40:05.690Z,24.03
2023-04-19T01:42:32.979Z,22.76
2023-04-19T01:45:01.088Z,23.02
2023-04-19T01:47:28.599Z,22.04
2023-04-19T01:49:56.035Z,21.99
2023-04-19T01:52:23.478Z,21.21
2023-04-19T01:54:50.592Z,21.06
2023-04-19T01:57:18.713Z,19.48
2023-04-19T01:59:47.597Z,18.25
2023-04-19T02:02:14.822Z,17.60
2023-04-19T02:04:42.528Z,19.17
2023-04-19T02:07:09.578Z,19.59
2023-04-19T02:09:37.737Z,19.65
2023-04-19T02:12:05.876Z,20.01
2023-04-19T02:14:33.496Z,19.94
2023-04-19T02:17:01.099Z,21.39
2023-04-19T02:19:28.112Z,21.98
2023-04-19T02:21:57.490Z,22.55
2023-04-19T02:24:24.998Z,21.69
2023-04-19T02:26:52.316Z,21.28
2023-04-19T02:29:19.758Z,21.50
2023-04-19T02:31:47.058Z,20.69
2023-04-19T02:34:14.382Z,21.28
2023-04-19T02:36:41.647Z,20.31
2023-04-19T02:39:08.677Z,20.29
2023-04-19T02:41:38.965Z,19.52
2023-04-19T02:44:06.192Z,19.96
2023-04-19T02:46:34.488Z,18.95
2023-04-19T02:49:02.710Z,19.36
2023-04-19T02:51:30.789Z,18.90
2023-04-19T02:53:58.370Z,19.29
2023-04-19T02:56:26.124Z,18.53
2023-04-19T02:58:54.780Z,18.35
2023-04-19T03:01:22.137Z,18.11
2023-04-19T03:03:49.319Z,18.08
2023-04-19T03:06:17.299Z,18.14
2023-04-19T03:08:44.824Z,19.05
2023-04-19T03:11:12.536Z,18.67
2023-04-19T03:13:40.522Z,19.42
2023-04-19T03:16:08.157Z,19.79
2023-04-19T03:18:36.915Z,19.32
2023-04-19T03:21:05.277Z,19.60
2023-04-19T03:23:41.078Z,19.34
2023-04-19T03:26:09.444Z,19.13
2023-04-19T03:28:41.737Z,19.40
2023-04-19T03:31:14.956Z,19.47
2023-04-19T03:33:42.232Z,19.56
2023-04-19T03:36:10.952Z,18.52
2023-04-19T03:38:40.537Z,17.97
2023-04-19T03:41:23.388Z,17.70
2023-04-19T03:44:00.260Z,18.64
2023-04-19T03:46:31.252Z,18.21
2023-04-19T03:48:59.740Z,18.69
2023-04-19T03:51:28.313Z,18.20
2023-04-19T03:53:55.619Z,17.88
2023-04-19T03:56:23.098Z,18.28
2023-04-19T03:58:52.020Z,18.67
2023-04-19T04:01:22.545Z,17.72
2023-04-19T04:03:50.939Z,18.04
2023-04-19T04:06:19.355Z,17.86
2023-04-19T04:08:47.687Z,18.27
2023-04-19T04:11:15.220Z,18.46
2023-04-19T04:13:43.514Z,18.35
2023-04-19T04:16:15.966Z,18.34
2023-04-19T04:18:43.523Z,18.63
2023-04-19T04:21:14.307Z,18.36
2023-04-19T04:23:45.192Z,19.16
2023-04-19T04:26:19.819Z,19.91
2023-04-19T04:29:06.081Z,20.72
2023-04-19T04:31:36.230Z,20.65
2023-04-19T04:34:03.930Z,21.21
2023-04-19T04:36:34.005Z,22.10
2023-04-19T04:39:01.911Z,22.60
2023-04-19T04:41:31.188Z,22.17
2023-04-19T04:44:22.956Z,22.70
2023-04-19T04:46:48.372Z,22.81
2023-04-19T04:49:21.476Z,21.93
2023-04-19T04:51:48.974Z,22.60
2023-04-19T04:54:17.038Z,22.14
2023-04-19T04:56:46.030Z,22.73
2023-04-19T04:59:14.139Z,22.87
2023-04-19T05:01:44.388Z,22.28
2023-04-19T05:04:12.847Z,22.27
2023-04-19T05:06:44.490Z,22.12
2023-04-19T05:09:12.836Z,22.22
2023-04-19T05:11:40.131Z,21.84
2023-04-19T05:14:07.329Z,21.72
2023-04-19T05:16:34.955Z,22.34
2023-04-19T05:19:03.463Z,21.36
2023-04-19T05:21:35.162Z,21.67
2023-04-19T05:24:05.488Z,22.12
2023-04-19T05:26:35.099Z,21.80
2023-04-19T05:29:04.044Z,22.05
2023-04-19T05:32:03.711Z,22.17
2023-04-19T05:34:36.534Z,22.23
2023-04-19T05:37:05.176Z,21.79
2023-04-19T05:39:32.538Z,21.86
2023-04-19T05:42:00.249Z,21.25
2023-04-19T05:44:27.667Z,20.63
2023-04-19T05:46:55.045Z,20.28
2023-04-19T05:49:43.127Z,20.70
2023-04-19T05:52:27.169Z,20.59
2023-04-19T05:54:56.781Z,20.42
2023-04-19T05:57:24.756Z,19.87
2023-04-19T05:59:52.204Z,19.96
2023-04-19T06:02:23.586Z,19.65
2023-04-19T06:04:51.174Z,19.72
2023-04-19T06:07:31.026Z,20.21
2023-04-19T06:10:00.036Z,20.58
2023-04-19T06:12:27.656Z,20.08
2023-04-19T06:14:55.322Z,20.17
2023-04-19T06:17:24.455Z,20.18
2023-04-19T06:19:52.472Z,20.52
2023-04-19T06:22:20.156Z,20.60
2023-04-19T06:24:47.630Z,19.64
2023-04-19T06:27:16.224Z,20.18
2023-04-19T06:29:43.559Z,19.94
2023-04-19T06:32:11.288Z,20.53
2023-04-19T06:34:38.293Z,20.70
2023-04-19T06:37:05.291Z,21.08
2023-04-19T06:39:32.665Z,21.55
2023-04-19T06:42:00.062Z,20.67
2023-04-19T06:44:28.810Z,21.21
2023-04-19T06:46:55.962Z,21.42
2023-04-19T06:49:23.414Z,22.41
2023-04-19T06:51:50.533Z,22.59
2023-04-19T06:54:18.472Z,22.69
2023-04-19T06:56:47.834Z,23.72
2023-04-19T06:59:19.215Z,23.71
2023-04-19T07:01:47.332Z,23.71
2023-04-19T07:04:15.687Z,24.01
2023-04-19T07:06:43.352Z,24.32
2023-04-19T07:09:10.933Z,24.10
2023-04-19T07:11:38.351Z,24.58
2023-04-19T07:14:05.730Z,24.61
2023-04-19T07:16:33.559Z,23.61
2023-04-19T07:19:00.880Z,23.64
2023-04-19T07:21:30.473Z,23.58
2023-04-19T07:23:57.886Z,23.63
2023-04-19T07:26:25.392Z,23.80
2023-04-19T07:28:52.651Z,23.27
2023-04-19T07:31:21.005Z,23.16
2023-04-19T07:33:48.511Z,23.21
2023-04-19T07:36:15.837Z,23.30
2023-04-19T07:38:43.304Z,23.35
2023-04-19T07:41:10.462Z,23.69
2023-04-19T07:43:39.172Z,23.48
2023-04-19T07:46:11.180Z,23.63
2023-04-19T07:48:38.658Z,23.46
2023-04-19T07:51:12.283Z,23.11
2023-04-19T07:53:40.503Z,23.24
2023-04-19T07:56:08.179Z,23.17
2023-04-19T07:58:39.256Z,23.08
2023-04-19T08:01:06.920Z,22.72
2023-04-19T08:03:34.398Z,22.29
2023-04-19T08:06:02.792Z,21.90
2023-04-19T08:08:30.928Z,22.34
2023-04-19T08:10:59.605Z,22.15
2023-04-19T08:13:29.677Z,22.01
2023-04-19T08:18:27.535Z,22.13
2023-04-19T08:20:56.134Z,22.23
2023-04-19T08:23:29.491Z,21.93
2023-04-19T08:26:02.186Z,21.84
2023-04-19T08:28:29.796Z,22.14
2023-04-19T08:30:58.500Z,22.73
2023-04-19T08:33:25.640Z,22.83
2023-04-19T08:35:53.102Z,22.43
2023-04-19T08:38:20.289Z,22.69
2023-04-19T08:40:53.309Z,22.33
2023-04-19T08:43:20.517Z,22.46
2023-04-19T08:45:51.280Z,23.11
2023-04-19T08:48:18.445Z,22.82
2023-04-19T08:51:03.576Z,22.94
2023-04-19T08:53:34.175Z,23.06
2023-04-19T09:01:07.410Z,23.29
2023-04-19T09:03:44.285Z,23.61
2023-04-19T09:06:15.387Z,23.26
2023-04-19T09:08:42.648Z,22.64
2023-04-19T09:11:09.720Z,22.98
2023-04-19T09:13:38.796Z,23.25
2023-04-19T09:16:08.084Z,23.17
2023-04-19T09:18:45.582Z,22.31
2023-04-19T09:21:30.797Z,22.43
2023-04-19T09:23:58.094Z,22.90
2023-04-19T09:26:29.288Z,22.48
2023-04-19T09:29:04.119Z,22.75
2023-04-19T09:31:50.993Z,22.68
2023-04-19T09:34:19.171Z,22.55
2023-04-19T09:36:47.064Z,22.07
2023-04-19T09:39:15.191Z,22.17
2023-04-19T09:41:55.114Z,21.92
2023-04-19T09:46:53.568Z,21.68
2023-04-19T09:49:37.509Z,21.75
2023-04-19T09:52:13.636Z,21.99
2023-04-19T09:54:41.244Z,22.18
2023-04-19T09:57:08.244Z,22.12
2023-04-19T09:59:35.859Z,22.49
2023-04-19T10:02:03.378Z,22.44
2023-04-19T10:04:44.159Z,22.34
2023-04-19T10:07:30.134Z,22.74
2023-04-19T10:10:11.847Z,22.49
2023-04-19T10:13:07.567Z,22.54
2023-04-19T10:18:08.238Z,21.83
2023-04-19T10:21:01.975Z,21.76
2023-04-19T10:23:29.409Z,21.69
2023-04-19T10:25:57.417Z,21.96
2023-04-19T10:28:25.312Z,21.50
2023-04-19T10:30:54.240Z,21.63
2023-04-19T10:33:26.107Z,21.47
2023-04-19T10:35:56.533Z,21.62
2023-04-19T10:38:37.049Z,21.71
2023-04-19T10:41:05.144Z,21.25
2023-04-19T10:43:36.623Z,21.63
2023-04-19T10:46:17.332Z,21.67
2023-04-19T10:48:54.948Z,21.57
2023-04-19T10:51:44.321Z,21.79
2023-04-19T10:54:31.576Z,22.62
2023-04-19T10:57:04.495Z,22.73
2023-04-19T10:59:36.377Z,23.04
2023-04-19T11:02:04.994Z,22.15
2023-04-19T11:04:32.793Z,22.98
2023-04-19T11:07:07.311Z,22.87
2023-04-19T11:09:41.365Z,22.75
2023-04-19T11:12:14.366Z,23.07
2023-04-19T11:14:43.348Z,22.98
2023-04-19T11:17:30.743Z,23.77
2023-04-19T11:20:02.235Z,23.71
2023-04-19T11:22:39.319Z,24.44
2023-04-19T11:25:22.291Z,24.63
2023-04-19T11:27:52.055Z,24.42
2023-04-19T11:30:22.389Z,24.89
2023-04-19T11:32:53.663Z,25.36
2023-04-19T11:35:21.782Z,25.75
2023-04-19T11:37:49.889Z,26.28
2023-04-19T11:40:18.386Z,26.37
2023-04-19T11:42:45.677Z,26.90
2023-04-19T11:45:25.911Z,26.84
2023-04-19T11:47:56.691Z,27.17
2023-04-19T11:50:38.393Z,27.12
2023-04-19T11:53:19.206Z,27.65
2023-04-19T11:55:57.869Z,27.99
2023-04-19T11:58:44.717Z,28.51
2023-04-19T12:01:13.444Z,28.07
2023-04-19T12:03:44.471Z,28.26
2023-04-19T12:06:14.821Z,28.38
2023-04-19T12:08:50.036Z,28.79
2023-04-19T12:11:24.088Z,28.79
2023-04-19T12:14:10.041Z,28.70
2023-04-19T12:16:37.359Z,28.83
2023-04-19T12:19:18.859Z,29.55
2023-04-19T12:21:46.492Z,29.29
2023-04-19T12:24:15.863Z,29.30
2023-04-19T12:26:56.696Z,29.34
2023-04-19T12:29:24.579Z,29.38
2023-04-19T12:31:51.960Z,29.41
2023-04-19T12:34:19.413Z,29.33
2023-04-19T12:36:46.822Z,29.67
2023-04-19T12:39:14.755Z,30.24
2023-04-19T12:41:42.217Z,30.25
2023-04-19T12:44:09.258Z,29.88
2023-04-19T12:46:36.748Z,29.99
2023-04-19T12:49:04.251Z,30.60
2023-04-19T12:51:32.399Z,30.49
2023-04-19T12:54:00.186Z,30.40
2023-04-19T12:56:27.931Z,30.72
2023-04-19T12:58:54.966Z,30.73
2023-04-19T13:01:23.514Z,30.73
2023-04-19T13:03:51.270Z,30.86
2023-04-19T13:06:18.942Z,31.25
2023-04-19T13:08:47.787Z,31.58
2023-04-19T13:11:15.736Z,31.30
2023-04-19T13:13:43.315Z,31.43
2023-04-19T13:16:10.735Z,31.50
2023-04-19T13:18:38.110Z,31.29
2023-04-19T13:21:08.084Z,31.77
2023-04-19T13:23:35.950Z,32.00
2023-04-19T13:26:03.718Z,32.16
2023-04-19T13:28:30.878Z,31.95
2023-04-19T13:30:58.140Z,32.19
2023-04-19T13:33:26.642Z,31.95
2023-04-19T13:35:54.412Z,32.27
2023-04-19T13:38:22.736Z,32.47
2023-04-19T13:40:49.882Z,32.66
2023-04-19T13:43:17.602Z,32.68
2023-04-19T13:45:45.073Z,32.73
2023-04-19T13:48:12.167Z,32.67
2023-04-19T13:50:39.597Z,32.66
2023-04-19T13:53:07.157Z,32.11
2023-04-19T13:55:34.579Z,32.53
2023-04-19T13:58:02.218Z,32.21
2023-04-19T14:00:29.305Z,32.57
2023-04-19T14:02:57.001Z,32.10
2023-04-19T14:05:24.615Z,32.20
2023-04-19T14:07:52.568Z,32.20
2023-04-19T14:10:19.744Z,32.32
2023-04-19T14:12:47.782Z,32.27
2023-04-19T14:15:15.199Z,32.05
2023-04-19T14:17:42.759Z,33.01
2023-04-19T14:20:13.687Z,33.09
2023-04-19T14:22:41.115Z,33.19
2023-04-19T14:25:08.592Z,33.82
2023-04-19T14:27:36.067Z,34.02
2023-04-19T14:30:03.651Z,33.89
2023-04-19T14:34:59.228Z,34.46
2023-04-19T14:37:26.639Z,34.47
2023-04-19T14:39:53.726Z,34.40
2023-04-19T14:42:22.641Z,34.00
2023-04-19T14:44:51.811Z,34.55
2023-04-19T14:47:19.239Z,34.64
2023-04-19T14:49:46.702Z,34.23
2023-04-19T14:52:14.100Z,34.39
2023-04-19T14:54:42.020Z,33.83
2023-04-19T14:57:09.500Z,34.24
2023-04-19T14:59:37.149Z,34.38
2023-04-19T15:02:04.471Z,34.22
2023-04-19T15:04:37.256Z,33.95
2023-04-19T15:07:07.375Z,33.08
2023-04-19T15:09:34.810Z,32.84
2023-04-19T15:12:02.662Z,33.42
2023-04-19T15:14:29.937Z,34.28
2023-04-19T15:16:56.955Z,33.98
2023-04-19T15:19:24.505Z,33.82
2023-04-19T15:21:51.829Z,33.62
2023-04-19T15:24:19.249Z,33.57
2023-04-19T15:26:46.930Z,33.95
2023-04-19T15:29:14.657Z,33.53
2023-04-19T15:31:42.251Z,33.63
2023-04-19T15:34:09.439Z,33.37
2023-04-19T15:36:40.612Z,34.03
2023-04-19T15:39:08.156Z,33.80
2023-04-19T15:41:35.533Z,34.38
2023-04-19T15:44:02.886Z,33.97
2023-04-19T15:46:30.295Z,34.09
2023-04-19T15:48:58.052Z,33.93
2023-04-19T15:51:25.350Z,33.99
2023-04-19T15:53:52.718Z,34.09
2023-04-19T15:56:20.665Z,33.67
2023-04-19T15:58:47.980Z,34.04
2023-04-19T16:01:16.397Z,33.87
2023-04-19T16:03:46.102Z,33.51
2023-04-19T16:06:13.485Z,33.37
2023-04-19T16:08:41.169Z,33.89
2023-04-19T16:11:08.367Z,33.98
2023-04-19T16:13:35.468Z,34.02
2023-04-19T16:16:03.252Z,34.47
2023-04-19T16:18:30.693Z,34.36
2023-04-19T16:20:58.295Z,34.73
2023-04-19T16:23:25.744Z,34.29
2023-04-19T16:25:53.789Z,34.53
2023-04-19T16:28:22.659Z,34.92
2023-04-19T16:30:49.843Z,34.97
2023-04-19T16:33:17.479Z,34.84
2023-04-19T16:35:44.907Z,35.19
2023-04-19T16:38:12.297Z,35.22
2023-04-19T16:40:40.034Z,35.38
2023-04-19T16:43:07.150Z,35.68
2023-04-19T16:45:34.910Z,35.72
2023-04-19T16:48:02.402Z,35.59
2023-04-19T16:50:29.847Z,35.65
2023-04-19T16:52:57.023Z,35.73
2023-04-19T16:55:24.281Z,35.57
2023-04-19T16:57:53.705Z,35.78
2023-04-19T17:00:21.788Z,35.78
2023-04-19T17:02:49.427Z,36.06
2023-04-19T17:05:16.619Z,36.58
2023-04-19T17:07:43.864Z,37.67
2023-04-19T17:10:11.446Z,37.83
2023-04-19T17:12:39.178Z,37.99
2023-04-19T17:15:06.468Z,37.56
2023-04-19T17:17:33.610Z,37.83
2023-04-19T17:20:01.302Z,37.43
2023-04-19T17:22:28.541Z,37.47
2023-04-19T17:24:57.183Z,37.97
2023-04-19T17:27:25.026Z,37.82
2023-04-19T17:29:52.466Z,37.66
2023-04-19T17:32:19.490Z,37.61
2023-04-19T17:34:46.950Z,37.61
2023-04-19T17:37:14.473Z,37.77
2023-04-19T17:39:41.594Z,37.60
2023-04-19T17:42:09.124Z,37.48
2023-04-19T17:44:36.353Z,37.61
2023-04-19T17:47:03.734Z,37.55
2023-04-19T17:49:30.869Z,37.56
2023-04-19T17:51:58.455Z,37.43
2023-04-19T17:54:25.686Z,37.87
2023-04-19T17:56:53.053Z,37.71
2023-04-19T17:59:20.248Z,37.73
2023-04-19T18:01:47.654Z,37.90
2023-04-19T18:04:17.627Z,37.67
2023-04-19T18:06:48.701Z,37.69
2023-04-19T18:09:19.166Z,38.10
2023-04-19T18:11:47.472Z,38.08
2023-04-19T18:14:15.068Z,38.01
2023-04-19T18:16:42.079Z,38.12
2023-04-19T18:19:09.850Z,38.44
2023-04-19T18:21:37.524Z,38.57
2023-04-19T18:24:05.430Z,38.16
2023-04-19T18:26:40.218Z,38.58
2023-04-19T18:29:07.647Z,38.31
2023-04-19T18:31:34.696Z,38.56
2023-04-19T18:34:02.565Z,38.72
2023-04-19T18:36:30.005Z,38.85
2023-04-19T18:38:57.205Z,38.47
2023-04-19T18:41:24.719Z,39.01
2023-04-19T18:44:19.212Z,38.76
2023-04-19T18:46:39.282Z,38.98
2023-04-19T18:49:06.884Z,39.16
2023-04-19T18:51:34.251Z,39.18
2023-04-19T18:54:01.652Z,39.16
2023-04-19T18:57:03.760Z,39.57
2023-04-19T18:59:16.810Z,39.77
2023-04-19T19:01:45.405Z,39.66
2023-04-19T19:06:51.623Z,39.38
2023-04-19T19:09:22.684Z,39.76
2023-04-19T19:11:56.744Z,39.67
2023-04-19T19:14:24.773Z,39.63
2023-04-19T19:16:53.099Z,39.19
2023-04-19T19:19:22.431Z,39.33
2023-04-19T19:21:52.196Z,39.99
2023-04-19T19:24:19.550Z,39.41
2023-04-19T19:26:47.514Z,39.87
2023-04-19T19:29:16.544Z,40.15
2023-04-19T19:31:44.316Z,40.23
2023-04-19T19:34:24.173Z,40.64
2023-04-19T19:36:54.641Z,40.44
2023-04-19T19:39:22.131Z,40.38
2023-04-19T19:42:05.215Z,40.44
2023-04-19T19:44:33.697Z,40.24
2023-04-19T19:47:01.148Z,39.98
2023-04-19T19:49:28.438Z,40.38
2023-04-19T19:51:59.103Z,40.15
2023-04-19T19:54:27.296Z,40.32
2023-04-19T19:57:21.771Z,40.37
2023-04-19T19:59:50.387Z,40.59
2023-04-19T20:02:22.490Z,40.28
2023-04-19T20:04:50.781Z,40.09
2023-04-19T20:07:37.383Z,40.34
2023-04-19T20:10:08.444Z,39.82
2023-04-19T20:12:35.874Z,40.10
2023-04-19T20:15:03.556Z,39.86
2023-04-19T20:17:31.412Z,39.79
2023-04-19T20:20:00.088Z,40.13
2023-04-19T20:22:27.232Z,39.89
2023-04-19T20:24:54.528Z,39.87
2023-04-19T20:27:21.933Z,39.81
2023-04-19T20:29:49.035Z,39.64
2023-04-19T20:32:16.533Z,39.67
2023-04-19T20:34:45.978Z,39.49
2023-04-19T20:37:13.386Z,39.19
2023-04-19T20:39:40.855Z,39.27
2023-04-19T20:42:08.176Z,39.22
2023-04-19T20:44:36.159Z,38.92
2023-04-19T20:47:03.502Z,38.44
2023-04-19T20:49:30.839Z,38.76
2023-04-19T20:51:58.068Z,38.27
2023-04-19T20:54:25.885Z,38.29
2023-04-19T20:56:53.727Z,38.41
2023-04-19T20:59:21.015Z,38.27
2023-04-19T21:01:48.225Z,38.46
2023-04-19T21:04:15.924Z,38.24
2023-04-19T21:06:43.216Z,37.68
2023-04-19T21:09:10.898Z,38.05
2023-04-19T21:11:38.196Z,38.21
2023-04-19T21:14:05.602Z,37.40
2023-04-19T21:16:32.882Z,37.58
2023-04-19T21:19:00.065Z,37.54
2023-04-19T21:21:27.740Z,37.30
2023-04-19T21:23:55.143Z,37.03
2023-04-19T21:26:22.141Z,36.63
2023-04-19T21:28:49.557Z,36.63
2023-04-19T21:31:16.910Z,36.26
2023-04-19T21:33:44.338Z,36.64
2023-04-19T21:36:11.370Z,36.21
2023-04-19T21:38:38.443Z,36.28
2023-04-19T21:41:07.540Z,36.64
2023-04-19T21:43:35.448Z,36.12
2023-04-19T21:46:04.957Z,36.36
2023-04-19T21:48:32.729Z,36.56
2023-04-19T21:51:01.158Z,36.29
2023-04-19T21:53:28.592Z,36.34
2023-04-19T21:55:56.011Z,36.22
2023-04-19T21:58:23.130Z,35.82
2023-04-19T22:00:51.298Z,36.46
2023-04-19T22:03:18.548Z,35.91
2023-04-19T22:05:46.703Z,36.04
2023-04-19T22:08:14.143Z,36.08
2023-04-19T22:10:42.649Z,35.91
2023-04-19T22:13:09.695Z,36.13
2023-04-19T22:15:37.574Z,35.47
2023-04-19T22:18:05.127Z,35.66
2023-04-19T22:20:33.724Z,35.69
2023-04-19T22:23:01.129Z,35.97
2023-04-19T22:25:28.449Z,35.99
2023-04-19T22:27:55.712Z,35.93
2023-04-19T22:30:23.031Z,36.28
2023-04-19T22:32:50.850Z,36.30
2023-04-19T22:35:19.084Z,36.30
2023-04-19T22:37:47.529Z,36.26
2023-04-19T22:40:14.584Z,35.93
2023-04-19T22:42:42.154Z,36.17
2023-04-19T22:45:10.101Z,36.18
2023-04-19T22:47:37.964Z,35.68
2023-04-19T22:50:05.533Z,35.88
2023-04-19T22:52:34.635Z,35.65
2023-04-19T22:55:01.698Z,35.49
2023-04-19T22:57:28.981Z,35.17
2023-04-19T22:59:56.146Z,35.06
2023-04-19T23:02:23.511Z,34.59
2023-04-19T23:04:50.634Z,34.83
2023-04-19T23:07:20.713Z,34.89
2023-04-19T23:09:48.024Z,34.64
2023-04-19T23:12:15.469Z,34.72
2023-04-19T23:14:42.897Z,34.50
2023-04-19T23:17:10.558Z,34.65
2023-04-19T23:19:38.576Z,34.62
2023-04-19T23:22:06.096Z,34.69
2023-04-19T23:24:33.207Z,34.29
2023-04-19T23:27:01.430Z,34.73
2023-04-19T23:29:29.713Z,34.61
2023-04-19T23:31:57.847Z,34.52
2023-04-19T23:34:25.562Z,34.77
2023-04-19T23:36:52.597Z,34.89
2023-04-19T23:39:20.309Z,34.70
2023-04-19T23:41:47.807Z,34.96
2023-04-19T23:44:15.579Z,34.50
2023-04-19T23:46:42.654Z,34.50
2023-04-19T23:49:10.004Z,34.64
2023-04-19T23:51:37.296Z,34.78
2023-04-19T23:54:04.933Z,34.78
2023-04-19T23:56:32.213Z,35.53
2023-04-19T23:58:59.854Z,35.88
